sensor_id;sensor_type;location;lat;lon;timestamp;P1;durP1;ratioP1;P2;durP2;ratioP2
55489;SDS011;44029;52.956;4.772;2023-09-12T00:01:03;40.58;;;21.02;;
55489;SDS011;44029;52.956;4.772;2023-09-12T00:03:30;41.00;;;21.00;;
55489;SDS011;44029;52.956;4.772;2023-09-12T00:05:56;38.55;;;20.02;;
55489;SDS011;44029;52.956;4.772;2023-09-12T00:08:23;41.78;;;21.33;;
55489;SDS011;44029;52.956;4.772;2023-09-12T00:11:05;38.65;;;20.17;;
55489;SDS011;44029;52.956;4.772;2023-09-12T00:13:35;37.90;;;21.52;;
55489;SDS011;44029;52.956;4.772;2023-09-12T00:16:01;38.50;;;20.52;;
55489;SDS011;44029;52.956;4.772;2023-09-12T00:18:26;51.45;;;28.55;;
55489;SDS011;44029;52.956;4.772;2023-09-12T00:20:52;35.20;;;20.48;;
55489;SDS011;44029;52.956;4.772;2023-09-12T00:23:18;38.08;;;20.73;;
55489;SDS011;44029;52.956;4.772;2023-09-12T00:25:43;41.95;;;21.58;;
55489;SDS011;44029;52.956;4.772;2023-09-12T00:28:09;42.58;;;20.23;;
55489;SDS011;44029;52.956;4.772;2023-09-12T00:30:34;35.42;;;21.25;;
55489;SDS011;44029;52.956;4.772;2023-09-12T00:32:59;42.42;;;20.67;;
55489;SDS011;44029;52.956;4.772;2023-09-12T00:35:25;41.83;;;21.23;;
55489;SDS011;44029;52.956;4.772;2023-09-12T00:37:50;35.88;;;20.55;;
55489;SDS011;44029;52.956;4.772;2023-09-12T00:40:15;35.88;;;19.95;;
55489;SDS011;44029;52.956;4.772;2023-09-12T00:42:40;39.97;;;21.05;;
55489;SDS011;44029;52.956;4.772;2023-09-12T00:45:06;39.92;;;21.90;;
55489;SDS011;44029;52.956;4.772;2023-09-12T00:47:31;34.90;;;19.83;;
55489;SDS011;44029;52.956;4.772;2023-09-12T00:49:58;42.75;;;20.83;;
55489;SDS011;44029;52.956;4.772;2023-09-12T00:52:25;39.60;;;20.83;;
55489;SDS011;44029;52.956;4.772;2023-09-12T00:54:53;39.63;;;20.00;;
55489;SDS011;44029;52.956;4.772;2023-09-12T00:57:20;41.50;;;21.30;;
55489;SDS011;44029;52.956;4.772;2023-09-12T00:59:47;37.85;;;20.75;;
55489;SDS011;44029;52.956;4.772;2023-09-12T01:02:13;38.78;;;19.80;;
55489;SDS011;44029;52.956;4.772;2023-09-12T01:04:38;41.65;;;21.42;;
55489;SDS011;44029;52.956;4.772;2023-09-12T01:07:04;38.47;;;21.13;;
55489;SDS011;44029;52.956;4.772;2023-09-12T01:09:31;42.22;;;20.95;;
55489;SDS011;44029;52.956;4.772;2023-09-12T01:11:57;39.97;;;21.00;;
55489;SDS011;44029;52.956;4.772;2023-09-12T01:14:22;45.90;;;22.08;;
55489;SDS011;44029;52.956;4.772;2023-09-12T01:16:48;41.70;;;21.15;;
55489;SDS011;44029;52.956;4.772;2023-09-12T01:19:13;39.10;;;21.48;;
55489;SDS011;44029;52.956;4.772;2023-09-12T01:21:47;41.33;;;22.52;;
55489;SDS011;44029;52.956;4.772;2023-09-12T01:27:30;46.75;;;22.42;;
55489;SDS011;44029;52.956;4.772;2023-09-12T01:29:57;43.92;;;21.63;;
55489;SDS011;44029;52.956;4.772;2023-09-12T01:32:25;46.88;;;22.98;;
55489;SDS011;44029;52.956;4.772;2023-09-12T01:34:51;42.88;;;22.33;;
55489;SDS011;44029;52.956;4.772;2023-09-12T01:37:17;48.03;;;22.88;;
55489;SDS011;44029;52.956;4.772;2023-09-12T01:39:42;45.35;;;22.42;;
55489;SDS011;44029;52.956;4.772;2023-09-12T01:42:08;46.40;;;23.08;;
55489;SDS011;44029;52.956;4.772;2023-09-12T01:44:46;43.63;;;22.55;;
55489;SDS011;44029;52.956;4.772;2023-09-12T01:47:15;46.15;;;22.83;;
55489;SDS011;44029;52.956;4.772;2023-09-12T01:49:45;41.25;;;21.83;;
55489;SDS011;44029;52.956;4.772;2023-09-12T01:52:13;36.63;;;21.02;;
55489;SDS011;44029;52.956;4.772;2023-09-12T01:54:39;52.15;;;21.55;;
55489;SDS011;44029;52.956;4.772;2023-09-12T01:57:07;44.55;;;22.13;;
55489;SDS011;44029;52.956;4.772;2023-09-12T01:59:34;46.15;;;21.90;;
55489;SDS011;44029;52.956;4.772;2023-09-12T02:01:59;41.80;;;21.98;;
55489;SDS011;44029;52.956;4.772;2023-09-12T02:04:25;44.47;;;23.45;;
55489;SDS011;44029;52.956;4.772;2023-09-12T02:06:50;47.58;;;21.92;;
55489;SDS011;44029;52.956;4.772;2023-09-12T02:09:15;43.80;;;21.52;;
55489;SDS011;44029;52.956;4.772;2023-09-12T02:11:41;36.53;;;20.75;;
55489;SDS011;44029;52.956;4.772;2023-09-12T02:14:06;44.10;;;21.67;;
55489;SDS011;44029;52.956;4.772;2023-09-12T02:16:31;42.42;;;21.23;;
55489;SDS011;44029;52.956;4.772;2023-09-12T02:18:57;41.33;;;20.42;;
55489;SDS011;44029;52.956;4.772;2023-09-12T02:21:22;39.80;;;19.40;;
55489;SDS011;44029;52.956;4.772;2023-09-12T02:23:47;44.22;;;20.55;;
55489;SDS011;44029;52.956;4.772;2023-09-12T02:26:13;38.95;;;20.55;;
55489;SDS011;44029;52.956;4.772;2023-09-12T02:28:38;44.53;;;20.33;;
55489;SDS011;44029;52.956;4.772;2023-09-12T02:31:07;41.78;;;20.58;;
55489;SDS011;44029;52.956;4.772;2023-09-12T02:33:35;39.70;;;19.48;;
55489;SDS011;44029;52.956;4.772;2023-09-12T02:36:00;37.83;;;20.15;;
55489;SDS011;44029;52.956;4.772;2023-09-12T02:38:25;39.40;;;19.50;;
55489;SDS011;44029;52.956;4.772;2023-09-12T02:40:51;37.45;;;20.27;;
55489;SDS011;44029;52.956;4.772;2023-09-12T02:43:16;39.10;;;18.10;;
55489;SDS011;44029;52.956;4.772;2023-09-12T02:45:41;40.47;;;19.23;;
55489;SDS011;44029;52.956;4.772;2023-09-12T02:48:07;39.50;;;19.65;;
55489;SDS011;44029;52.956;4.772;2023-09-12T02:50:33;41.83;;;20.60;;
55489;SDS011;44029;52.956;4.772;2023-09-12T02:52:58;41.70;;;19.23;;
55489;SDS011;44029;52.956;4.772;2023-09-12T02:55:23;42.13;;;18.80;;
55489;SDS011;44029;52.956;4.772;2023-09-12T02:57:49;40.10;;;20.80;;
55489;SDS011;44029;52.956;4.772;2023-09-12T03:00:14;38.13;;;19.92;;
55489;SDS011;44029;52.956;4.772;2023-09-12T03:02:39;37.47;;;19.17;;
55489;SDS011;44029;52.956;4.772;2023-09-12T03:05:05;42.58;;;20.02;;
55489;SDS011;44029;52.956;4.772;2023-09-12T03:07:30;40.08;;;19.77;;
55489;SDS011;44029;52.956;4.772;2023-09-12T03:09:56;38.15;;;20.23;;
55489;SDS011;44029;52.956;4.772;2023-09-12T03:12:21;37.17;;;19.70;;
55489;SDS011;44029;52.956;4.772;2023-09-12T03:14:46;43.20;;;20.33;;
55489;SDS011;44029;52.956;4.772;2023-09-12T03:17:12;36.85;;;18.25;;
55489;SDS011;44029;52.956;4.772;2023-09-12T03:19:37;39.40;;;19.73;;
55489;SDS011;44029;52.956;4.772;2023-09-12T03:22:03;43.70;;;20.23;;
55489;SDS011;44029;52.956;4.772;2023-09-12T03:24:29;44.72;;;19.40;;
55489;SDS011;44029;52.956;4.772;2023-09-12T03:26:54;37.38;;;20.58;;
55489;SDS011;44029;52.956;4.772;2023-09-12T03:29:20;34.15;;;19.20;;
55489;SDS011;44029;52.956;4.772;2023-09-12T03:31:45;37.88;;;19.85;;
55489;SDS011;44029;52.956;4.772;2023-09-12T03:34:10;38.97;;;19.05;;
55489;SDS011;44029;52.956;4.772;2023-09-12T03:36:36;40.78;;;19.23;;
55489;SDS011;44029;52.956;4.772;2023-09-12T03:39:01;40.10;;;17.95;;
55489;SDS011;44029;52.956;4.772;2023-09-12T03:41:28;37.63;;;17.33;;
55489;SDS011;44029;52.956;4.772;2023-09-12T03:43:53;37.53;;;16.48;;
55489;SDS011;44029;52.956;4.772;2023-09-12T03:46:19;37.80;;;17.48;;
55489;SDS011;44029;52.956;4.772;2023-09-12T03:48:45;38.45;;;16.58;;
55489;SDS011;44029;52.956;4.772;2023-09-12T03:51:10;33.83;;;16.20;;
55489;SDS011;44029;52.956;4.772;2023-09-12T03:53:36;39.35;;;16.73;;
55489;SDS011;44029;52.956;4.772;2023-09-12T03:56:01;31.80;;;15.20;;
55489;SDS011;44029;52.956;4.772;2023-09-12T03:58:27;33.13;;;15.82;;
55489;SDS011;44029;52.956;4.772;2023-09-12T04:00:52;32.35;;;15.43;;
55489;SDS011;44029;52.956;4.772;2023-09-12T04:03:18;33.00;;;15.25;;
55489;SDS011;44029;52.956;4.772;2023-09-12T04:05:43;35.13;;;14.40;;
55489;SDS011;44029;52.956;4.772;2023-09-12T04:08:10;33.92;;;14.18;;
55489;SDS011;44029;52.956;4.772;2023-09-12T04:10:36;38.65;;;15.48;;
55489;SDS011;44029;52.956;4.772;2023-09-12T04:13:02;34.33;;;13.68;;
55489;SDS011;44029;52.956;4.772;2023-09-12T04:15:27;34.10;;;15.23;;
55489;SDS011;44029;52.956;4.772;2023-09-12T04:17:52;30.45;;;15.20;;
55489;SDS011;44029;52.956;4.772;2023-09-12T04:20:18;23.90;;;14.45;;
55489;SDS011;44029;52.956;4.772;2023-09-12T04:22:44;32.97;;;14.05;;
55489;SDS011;44029;52.956;4.772;2023-09-12T04:25:09;26.70;;;12.60;;
55489;SDS011;44029;52.956;4.772;2023-09-12T04:27:34;26.40;;;13.98;;
55489;SDS011;44029;52.956;4.772;2023-09-12T04:30:00;26.80;;;13.63;;
55489;SDS011;44029;52.956;4.772;2023-09-12T04:32:25;30.75;;;13.13;;
55489;SDS011;44029;52.956;4.772;2023-09-12T04:34:51;23.88;;;13.13;;
55489;SDS011;44029;52.956;4.772;2023-09-12T04:37:16;30.23;;;13.60;;
55489;SDS011;44029;52.956;4.772;2023-09-12T04:39:42;29.85;;;13.52;;
55489;SDS011;44029;52.956;4.772;2023-09-12T04:42:07;31.35;;;13.95;;
55489;SDS011;44029;52.956;4.772;2023-09-12T04:44:36;34.35;;;14.52;;
55489;SDS011;44029;52.956;4.772;2023-09-12T04:47:02;32.63;;;14.73;;
55489;SDS011;44029;52.956;4.772;2023-09-12T04:49:27;29.58;;;14.48;;
55489;SDS011;44029;52.956;4.772;2023-09-12T04:51:53;30.77;;;13.73;;
55489;SDS011;44029;52.956;4.772;2023-09-12T04:54:18;32.97;;;13.65;;
55489;SDS011;44029;52.956;4.772;2023-09-12T04:56:43;34.50;;;14.02;;
55489;SDS011;44029;52.956;4.772;2023-09-12T04:59:09;25.95;;;14.43;;
55489;SDS011;44029;52.956;4.772;2023-09-12T05:01:34;33.72;;;13.77;;
55489;SDS011;44029;52.956;4.772;2023-09-12T05:03:59;40.70;;;14.88;;
55489;SDS011;44029;52.956;4.772;2023-09-12T05:06:25;36.88;;;15.68;;
55489;SDS011;44029;52.956;4.772;2023-09-12T05:08:50;29.95;;;14.88;;
55489;SDS011;44029;52.956;4.772;2023-09-12T05:11:15;32.60;;;14.75;;
55489;SDS011;44029;52.956;4.772;2023-09-12T05:13:41;36.53;;;13.77;;
55489;SDS011;44029;52.956;4.772;2023-09-12T05:16:06;23.75;;;13.32;;
55489;SDS011;44029;52.956;4.772;2023-09-12T05:18:31;27.35;;;14.27;;
55489;SDS011;44029;52.956;4.772;2023-09-12T05:20:57;31.27;;;14.00;;
55489;SDS011;44029;52.956;4.772;2023-09-12T05:23:22;38.78;;;15.48;;
55489;SDS011;44029;52.956;4.772;2023-09-12T05:25:48;32.03;;;14.90;;
55489;SDS011;44029;52.956;4.772;2023-09-12T05:28:13;36.70;;;14.55;;
55489;SDS011;44029;52.956;4.772;2023-09-12T05:30:41;33.25;;;14.57;;
55489;SDS011;44029;52.956;4.772;2023-09-12T05:33:07;29.10;;;14.50;;
55489;SDS011;44029;52.956;4.772;2023-09-12T05:35:32;34.83;;;15.07;;
55489;SDS011;44029;52.956;4.772;2023-09-12T05:37:57;27.75;;;14.68;;
55489;SDS011;44029;52.956;4.772;2023-09-12T05:40:23;27.98;;;13.70;;
55489;SDS011;44029;52.956;4.772;2023-09-12T05:42:48;31.95;;;15.05;;
55489;SDS011;44029;52.956;4.772;2023-09-12T05:45:13;30.45;;;15.32;;
55489;SDS011;44029;52.956;4.772;2023-09-12T05:47:39;35.85;;;15.38;;
55489;SDS011;44029;52.956;4.772;2023-09-12T05:50:05;30.92;;;15.00;;
55489;SDS011;44029;52.956;4.772;2023-09-12T05:52:32;32.75;;;15.63;;
55489;SDS011;44029;52.956;4.772;2023-09-12T05:54:57;27.50;;;14.68;;
55489;SDS011;44029;52.956;4.772;2023-09-12T05:57:23;33.25;;;15.02;;
55489;SDS011;44029;52.956;4.772;2023-09-12T05:59:49;24.67;;;13.45;;
55489;SDS011;44029;52.956;4.772;2023-09-12T06:02:14;29.83;;;14.05;;
55489;SDS011;44029;52.956;4.772;2023-09-12T06:04:40;24.23;;;13.00;;
55489;SDS011;44029;52.956;4.772;2023-09-12T06:07:05;26.52;;;12.02;;
55489;SDS011;44029;52.956;4.772;2023-09-12T06:09:30;29.17;;;13.05;;
55489;SDS011;44029;52.956;4.772;2023-09-12T06:11:56;29.40;;;12.50;;
55489;SDS011;44029;52.956;4.772;2023-09-12T06:14:21;22.60;;;12.00;;
55489;SDS011;44029;52.956;4.772;2023-09-12T06:16:47;20.95;;;11.30;;
55489;SDS011;44029;52.956;4.772;2023-09-12T06:19:12;19.42;;;10.75;;
55489;SDS011;44029;52.956;4.772;2023-09-12T06:21:39;27.65;;;10.70;;
55489;SDS011;44029;52.956;4.772;2023-09-12T06:26:34;26.88;;;10.88;;
55489;SDS011;44029;52.956;4.772;2023-09-12T06:28:59;28.83;;;12.02;;
55489;SDS011;44029;52.956;4.772;2023-09-12T06:31:25;27.48;;;10.93;;
55489;SDS011;44029;52.956;4.772;2023-09-12T06:33:50;18.27;;;10.65;;
55489;SDS011;44029;52.956;4.772;2023-09-12T06:36:15;28.85;;;11.75;;
55489;SDS011;44029;52.956;4.772;2023-09-12T06:38:41;20.92;;;10.32;;
55489;SDS011;44029;52.956;4.772;2023-09-12T06:41:06;28.02;;;11.90;;
55489;SDS011;44029;52.956;4.772;2023-09-12T06:43:31;25.70;;;10.93;;
55489;SDS011;44029;52.956;4.772;2023-09-12T06:45:57;34.08;;;16.13;;
55489;SDS011;44029;52.956;4.772;2023-09-12T06:48:22;29.00;;;15.32;;
55489;SDS011;44029;52.956;4.772;2023-09-12T06:50:47;34.08;;;13.35;;
55489;SDS011;44029;52.956;4.772;2023-09-12T06:53:13;25.92;;;12.35;;
55489;SDS011;44029;52.956;4.772;2023-09-12T06:55:38;27.88;;;12.32;;
55489;SDS011;44029;52.956;4.772;2023-09-12T06:58:03;24.30;;;12.23;;
55489;SDS011;44029;52.956;4.772;2023-09-12T07:00:29;24.17;;;12.13;;
55489;SDS011;44029;52.956;4.772;2023-09-12T07:02:54;23.38;;;11.27;;
55489;SDS011;44029;52.956;4.772;2023-09-12T07:05:20;20.00;;;11.38;;
55489;SDS011;44029;52.956;4.772;2023-09-12T07:07:45;32.38;;;12.65;;
55489;SDS011;44029;52.956;4.772;2023-09-12T07:10:11;28.52;;;10.98;;
55489;SDS011;44029;52.956;4.772;2023-09-12T07:12:36;25.30;;;11.07;;
55489;SDS011;44029;52.956;4.772;2023-09-12T07:15:02;20.58;;;9.52;;
55489;SDS011;44029;52.956;4.772;2023-09-12T07:17:28;22.05;;;9.60;;
55489;SDS011;44029;52.956;4.772;2023-09-12T07:19:53;15.48;;;8.18;;
55489;SDS011;44029;52.956;4.772;2023-09-12T07:22:19;19.10;;;8.10;;
55489;SDS011;44029;52.956;4.772;2023-09-12T07:24:44;13.48;;;6.95;;
55489;SDS011;44029;52.956;4.772;2023-09-12T07:27:09;15.00;;;6.75;;
55489;SDS011;44029;52.956;4.772;2023-09-12T07:29:35;13.82;;;6.95;;
55489;SDS011;44029;52.956;4.772;2023-09-12T07:32:00;14.10;;;6.80;;
55489;SDS011;44029;52.956;4.772;2023-09-12T07:34:26;13.10;;;6.22;;
55489;SDS011;44029;52.956;4.772;2023-09-12T07:36:51;12.73;;;6.53;;
55489;SDS011;44029;52.956;4.772;2023-09-12T07:39:17;17.58;;;6.53;;
55489;SDS011;44029;52.956;4.772;2023-09-12T07:41:43;10.68;;;5.57;;
55489;SDS011;44029;52.956;4.772;2023-09-12T07:44:08;10.10;;;5.53;;
55489;SDS011;44029;52.956;4.772;2023-09-12T07:46:36;15.85;;;6.18;;
55489;SDS011;44029;52.956;4.772;2023-09-12T07:49:04;17.13;;;6.20;;
55489;SDS011;44029;52.956;4.772;2023-09-12T07:51:30;16.80;;;6.15;;
55489;SDS011;44029;52.956;4.772;2023-09-12T07:53:55;11.98;;;6.00;;
55489;SDS011;44029;52.956;4.772;2023-09-12T07:56:21;10.90;;;5.53;;
55489;SDS011;44029;52.956;4.772;2023-09-12T07:58:48;10.40;;;4.95;;
55489;SDS011;44029;52.956;4.772;2023-09-12T08:01:14;10.80;;;4.53;;
55489;SDS011;44029;52.956;4.772;2023-09-12T08:03:41;9.70;;;4.57;;
55489;SDS011;44029;52.956;4.772;2023-09-12T08:06:07;10.68;;;4.88;;
55489;SDS011;44029;52.956;4.772;2023-09-12T08:08:32;7.32;;;4.32;;
55489;SDS011;44029;52.956;4.772;2023-09-12T08:10:58;8.63;;;5.13;;
55489;SDS011;44029;52.956;4.772;2023-09-12T08:13:26;9.00;;;4.72;;
55489;SDS011;44029;52.956;4.772;2023-09-12T08:15:53;13.15;;;5.50;;
55489;SDS011;44029;52.956;4.772;2023-09-12T08:18:19;7.88;;;4.70;;
55489;SDS011;44029;52.956;4.772;2023-09-12T08:20:44;11.48;;;5.40;;
55489;SDS011;44029;52.956;4.772;2023-09-12T08:23:10;9.32;;;4.85;;
55489;SDS011;44029;52.956;4.772;2023-09-12T08:25:35;9.35;;;5.10;;
55489;SDS011;44029;52.956;4.772;2023-09-12T08:28:01;10.13;;;5.28;;
55489;SDS011;44029;52.956;4.772;2023-09-12T08:30:26;10.73;;;4.90;;
55489;SDS011;44029;52.956;4.772;2023-09-12T08:32:54;11.90;;;5.43;;
55489;SDS011;44029;52.956;4.772;2023-09-12T08:35:19;7.72;;;4.57;;
55489;SDS011;44029;52.956;4.772;2023-09-12T08:37:45;8.02;;;4.85;;
55489;SDS011;44029;52.956;4.772;2023-09-12T08:40:11;12.02;;;5.32;;
55489;SDS011;44029;52.956;4.772;2023-09-12T08:42:41;7.30;;;5.22;;
55489;SDS011;44029;52.956;4.772;2023-09-12T08:45:11;16.50;;;5.57;;
55489;SDS011;44029;52.956;4.772;2023-09-12T08:47:43;11.18;;;4.90;;
55489;SDS011;44029;52.956;4.772;2023-09-12T08:50:12;6.63;;;4.63;;
55489;SDS011;44029;52.956;4.772;2023-09-12T08:52:41;7.13;;;5.13;;
55489;SDS011;44029;52.956;4.772;2023-09-12T08:55:08;8.38;;;5.05;;
55489;SDS011;44029;52.956;4.772;2023-09-12T08:57:35;7.15;;;4.57;;
55489;SDS011;44029;52.956;4.772;2023-09-12T09:00:03;10.73;;;5.57;;
55489;SDS011;44029;52.956;4.772;2023-09-12T09:02:31;9.25;;;5.00;;
55489;SDS011;44029;52.956;4.772;2023-09-12T09:04:58;10.95;;;5.68;;
55489;SDS011;44029;52.956;4.772;2023-09-12T09:07:25;8.75;;;4.78;;
55489;SDS011;44029;52.956;4.772;2023-09-12T09:09:53;9.15;;;5.55;;
55489;SDS011;44029;52.956;4.772;2023-09-12T09:12:21;9.63;;;4.93;;
55489;SDS011;44029;52.956;4.772;2023-09-12T09:14:46;7.97;;;5.25;;
55489;SDS011;44029;52.956;4.772;2023-09-12T09:17:12;7.93;;;4.65;;
55489;SDS011;44029;52.956;4.772;2023-09-12T09:19:42;7.72;;;5.07;;
55489;SDS011;44029;52.956;4.772;2023-09-12T09:22:10;12.65;;;5.93;;
55489;SDS011;44029;52.956;4.772;2023-09-12T09:24:36;8.18;;;5.07;;
55489;SDS011;44029;52.956;4.772;2023-09-12T09:27:01;8.55;;;5.15;;
55489;SDS011;44029;52.956;4.772;2023-09-12T09:29:27;11.23;;;4.90;;
55489;SDS011;44029;52.956;4.772;2023-09-12T09:31:57;11.75;;;5.22;;
55489;SDS011;44029;52.956;4.772;2023-09-12T09:34:24;5.97;;;4.50;;
55489;SDS011;44029;52.956;4.772;2023-09-12T09:36:53;6.63;;;4.82;;
55489;SDS011;44029;52.956;4.772;2023-09-12T09:39:23;7.57;;;4.68;;
55489;SDS011;44029;52.956;4.772;2023-09-12T09:41:51;7.85;;;4.78;;
55489;SDS011;44029;52.956;4.772;2023-09-12T09:44:18;11.13;;;4.95;;
55489;SDS011;44029;52.956;4.772;2023-09-12T09:46:46;7.38;;;4.63;;
55489;SDS011;44029;52.956;4.772;2023-09-12T09:49:15;7.18;;;4.13;;
55489;SDS011;44029;52.956;4.772;2023-09-12T09:51:43;7.75;;;4.22;;
55489;SDS011;44029;52.956;4.772;2023-09-12T09:54:09;7.47;;;4.13;;
55489;SDS011;44029;52.956;4.772;2023-09-12T09:56:53;10.10;;;4.60;;
55489;SDS011;44029;52.956;4.772;2023-09-12T09:59:26;7.13;;;4.50;;
55489;SDS011;44029;52.956;4.772;2023-09-12T10:01:56;7.93;;;4.60;;
55489;SDS011;44029;52.956;4.772;2023-09-12T10:04:23;8.80;;;4.70;;
55489;SDS011;44029;52.956;4.772;2023-09-12T10:06:52;10.23;;;4.80;;
55489;SDS011;44029;52.956;4.772;2023-09-12T10:09:20;8.15;;;4.93;;
55489;SDS011;44029;52.956;4.772;2023-09-12T10:11:47;6.60;;;3.90;;
55489;SDS011;44029;52.956;4.772;2023-09-12T10:14:16;7.28;;;4.63;;
55489;SDS011;44029;52.956;4.772;2023-09-12T10:16:45;6.97;;;4.40;;
55489;SDS011;44029;52.956;4.772;2023-09-12T10:19:16;6.50;;;3.92;;
55489;SDS011;44029;52.956;4.772;2023-09-12T10:21:45;12.48;;;6.50;;
55489;SDS011;44029;52.956;4.772;2023-09-12T10:24:14;6.47;;;3.88;;
55489;SDS011;44029;52.956;4.772;2023-09-12T10:26:41;7.13;;;3.85;;
55489;SDS011;44029;52.956;4.772;2023-09-12T10:29:13;6.55;;;4.15;;
55489;SDS011;44029;52.956;4.772;2023-09-12T10:31:42;9.38;;;4.40;;
55489;SDS011;44029;52.956;4.772;2023-09-12T10:34:08;7.60;;;4.35;;
55489;SDS011;44029;52.956;4.772;2023-09-12T10:36:39;8.30;;;4.32;;
55489;SDS011;44029;52.956;4.772;2023-09-12T10:39:05;8.35;;;3.72;;
55489;SDS011;44029;52.956;4.772;2023-09-12T10:41:32;5.75;;;4.15;;
55489;SDS011;44029;52.956;4.772;2023-09-12T10:44:00;6.75;;;4.05;;
55489;SDS011;44029;52.956;4.772;2023-09-12T10:46:27;8.35;;;4.22;;
55489;SDS011;44029;52.956;4.772;2023-09-12T10:48:53;7.57;;;3.78;;
55489;SDS011;44029;52.956;4.772;2023-09-12T10:51:19;7.43;;;4.30;;
55489;SDS011;44029;52.956;4.772;2023-09-12T10:53:48;6.30;;;3.78;;
55489;SDS011;44029;52.956;4.772;2023-09-12T10:56:16;6.80;;;4.07;;
55489;SDS011;44029;52.956;4.772;2023-09-12T11:01:29;7.32;;;3.85;;
55489;SDS011;44029;52.956;4.772;2023-09-12T11:03:55;9.77;;;4.05;;
55489;SDS011;44029;52.956;4.772;2023-09-12T11:06:30;6.53;;;4.15;;
55489;SDS011;44029;52.956;4.772;2023-09-12T11:11:46;7.68;;;4.32;;
55489;SDS011;44029;52.956;4.772;2023-09-12T11:14:12;7.47;;;3.95;;
55489;SDS011;44029;52.956;4.772;2023-09-12T11:16:38;9.23;;;4.68;;
55489;SDS011;44029;52.956;4.772;2023-09-12T11:21:49;7.32;;;4.20;;
55489;SDS011;44029;52.956;4.772;2023-09-12T11:24:16;7.85;;;4.35;;
55489;SDS011;44029;52.956;4.772;2023-09-12T11:26:59;5.53;;;3.95;;
55489;SDS011;44029;52.956;4.772;2023-09-12T11:29:29;6.82;;;3.63;;
55489;SDS011;44029;52.956;4.772;2023-09-12T11:32:01;8.65;;;4.03;;
55489;SDS011;44029;52.956;4.772;2023-09-12T11:34:28;5.68;;;3.60;;
55489;SDS011;44029;52.956;4.772;2023-09-12T11:37:00;6.93;;;3.83;;
55489;SDS011;44029;52.956;4.772;2023-09-12T11:39:28;6.97;;;3.45;;
55489;SDS011;44029;52.956;4.772;2023-09-12T11:41:55;8.35;;;3.92;;
55489;SDS011;44029;52.956;4.772;2023-09-12T11:44:23;7.05;;;3.88;;
55489;SDS011;44029;52.956;4.772;2023-09-12T11:46:50;7.68;;;3.60;;
55489;SDS011;44029;52.956;4.772;2023-09-12T11:49:17;13.18;;;4.38;;
55489;SDS011;44029;52.956;4.772;2023-09-12T11:51:50;7.80;;;3.80;;
55489;SDS011;44029;52.956;4.772;2023-09-12T11:54:20;5.57;;;3.25;;
55489;SDS011;44029;52.956;4.772;2023-09-12T11:56:50;5.20;;;3.00;;
55489;SDS011;44029;52.956;4.772;2023-09-12T11:59:21;7.18;;;2.95;;
55489;SDS011;44029;52.956;4.772;2023-09-12T12:01:47;9.30;;;3.75;;
55489;SDS011;44029;52.956;4.772;2023-09-12T12:04:13;9.02;;;5.57;;
55489;SDS011;44029;52.956;4.772;2023-09-12T12:06:38;39.50;;;22.05;;
55489;SDS011;44029;52.956;4.772;2023-09-12T12:09:04;9.27;;;3.95;;
55489;SDS011;44029;52.956;4.772;2023-09-12T12:11:30;48.35;;;26.70;;
55489;SDS011;44029;52.956;4.772;2023-09-12T12:13:56;12.65;;;6.38;;
55489;SDS011;44029;52.956;4.772;2023-09-12T12:16:22;7.88;;;2.75;;
55489;SDS011;44029;52.956;4.772;2023-09-12T12:18:47;10.45;;;3.20;;
55489;SDS011;44029;52.956;4.772;2023-09-12T12:21:12;7.75;;;3.08;;
55489;SDS011;44029;52.956;4.772;2023-09-12T12:23:38;12.60;;;3.90;;
55489;SDS011;44029;52.956;4.772;2023-09-12T12:26:07;5.25;;;3.33;;
55489;SDS011;44029;52.956;4.772;2023-09-12T12:28:37;5.93;;;3.00;;
55489;SDS011;44029;52.956;4.772;2023-09-12T12:31:03;9.00;;;2.90;;
55489;SDS011;44029;52.956;4.772;2023-09-12T12:33:29;5.88;;;2.92;;
55489;SDS011;44029;52.956;4.772;2023-09-12T12:36:01;11.45;;;4.95;;
55489;SDS011;44029;52.956;4.772;2023-09-12T12:38:31;5.63;;;2.92;;
55489;SDS011;44029;52.956;4.772;2023-09-12T12:41:00;8.85;;;3.10;;
55489;SDS011;44029;52.956;4.772;2023-09-12T12:43:25;5.63;;;2.15;;
55489;SDS011;44029;52.956;4.772;2023-09-12T12:45:55;59.92;;;27.25;;
55489;SDS011;44029;52.956;4.772;2023-09-12T12:48:31;8.68;;;2.88;;
55489;SDS011;44029;52.956;4.772;2023-09-12T12:50:58;5.63;;;2.55;;
55489;SDS011;44029;52.956;4.772;2023-09-12T12:53:39;9.90;;;4.50;;
55489;SDS011;44029;52.956;4.772;2023-09-12T12:56:06;8.52;;;2.28;;
55489;SDS011;44029;52.956;4.772;2023-09-12T12:58:31;8.65;;;2.83;;
55489;SDS011;44029;52.956;4.772;2023-09-12T13:00:57;8.07;;;2.20;;
55489;SDS011;44029;52.956;4.772;2023-09-12T13:03:22;17.77;;;14.32;;
55489;SDS011;44029;52.956;4.772;2023-09-12T13:05:47;10.65;;;3.83;;
55489;SDS011;44029;52.956;4.772;2023-09-12T13:08:13;5.38;;;2.20;;
55489;SDS011;44029;52.956;4.772;2023-09-12T13:10:38;6.53;;;2.40;;
55489;SDS011;44029;52.956;4.772;2023-09-12T13:13:03;4.63;;;1.90;;
55489;SDS011;44029;52.956;4.772;2023-09-12T13:15:29;3.88;;;1.70;;
55489;SDS011;44029;52.956;4.772;2023-09-12T13:17:55;35.17;;;17.33;;
55489;SDS011;44029;52.956;4.772;2023-09-12T13:20:20;7.13;;;2.35;;
55489;SDS011;44029;52.956;4.772;2023-09-12T13:22:45;5.97;;;2.17;;
55489;SDS011;44029;52.956;4.772;2023-09-12T13:25:11;6.63;;;1.83;;
55489;SDS011;44029;52.956;4.772;2023-09-12T13:27:36;7.45;;;1.63;;
55489;SDS011;44029;52.956;4.772;2023-09-12T13:30:02;14.02;;;7.90;;
55489;SDS011;44029;52.956;4.772;2023-09-12T13:32:28;28.00;;;13.75;;
55489;SDS011;44029;52.956;4.772;2023-09-12T13:34:54;9.23;;;5.95;;
55489;SDS011;44029;52.956;4.772;2023-09-12T13:37:19;32.17;;;20.92;;
55489;SDS011;44029;52.956;4.772;2023-09-12T13:39:46;16.67;;;6.55;;
55489;SDS011;44029;52.956;4.772;2023-09-12T13:42:14;5.68;;;2.10;;
55489;SDS011;44029;52.956;4.772;2023-09-12T13:44:43;11.88;;;2.38;;
55489;SDS011;44029;52.956;4.772;2023-09-12T13:47:09;9.07;;;2.00;;
55489;SDS011;44029;52.956;4.772;2023-09-12T13:49:34;6.45;;;1.95;;
55489;SDS011;44029;52.956;4.772;2023-09-12T13:51:59;6.13;;;2.65;;
55489;SDS011;44029;52.956;4.772;2023-09-12T13:54:25;15.93;;;7.30;;
55489;SDS011;44029;52.956;4.772;2023-09-12T13:56:50;7.75;;;3.63;;
55489;SDS011;44029;52.956;4.772;2023-09-12T13:59:15;11.25;;;5.70;;
55489;SDS011;44029;52.956;4.772;2023-09-12T14:01:42;25.73;;;12.35;;
55489;SDS011;44029;52.956;4.772;2023-09-12T14:04:07;5.60;;;2.22;;
55489;SDS011;44029;52.956;4.772;2023-09-12T14:06:33;5.78;;;1.80;;
55489;SDS011;44029;52.956;4.772;2023-09-12T14:09:00;5.18;;;1.73;;
55489;SDS011;44029;52.956;4.772;2023-09-12T14:11:25;2.22;;;1.35;;
55489;SDS011;44029;52.956;4.772;2023-09-12T14:13:50;5.03;;;1.63;;
55489;SDS011;44029;52.956;4.772;2023-09-12T14:16:16;116.15;;;60.95;;
55489;SDS011;44029;52.956;4.772;2023-09-12T14:18:41;18.17;;;8.15;;
55489;SDS011;44029;52.956;4.772;2023-09-12T14:21:06;6.53;;;3.28;;
55489;SDS011;44029;52.956;4.772;2023-09-12T14:23:32;7.00;;;3.45;;
55489;SDS011;44029;52.956;4.772;2023-09-12T14:25:57;2.78;;;1.92;;
55489;SDS011;44029;52.956;4.772;2023-09-12T14:28:22;22.23;;;11.82;;
55489;SDS011;44029;52.956;4.772;2023-09-12T14:30:48;3.50;;;1.90;;
55489;SDS011;44029;52.956;4.772;2023-09-12T14:33:15;3.58;;;1.50;;
55489;SDS011;44029;52.956;4.772;2023-09-12T14:35:40;4.97;;;1.50;;
55489;SDS011;44029;52.956;4.772;2023-09-12T14:38:08;3.28;;;1.27;;
55489;SDS011;44029;52.956;4.772;2023-09-12T14:40:33;4.30;;;1.95;;